sensor_id;sensor_type;location;lat;lon;timestamp;pressure;altitude;pressure_sealevel;temperature;humidity
84683;BME280;74905;44.124;18.116;2023-12-22T00:00:23;95551.22;;;2.87;82.70
84683;BME280;74905;44.124;18.116;2023-12-22T00:02:48;95546.25;;;2.97;82.75
84683;BME280;74905;44.124;18.116;2023-12-22T00:05:14;95547.97;;;3.04;82.64
84683;BME280;74905;44.124;18.116;2023-12-22T00:07:40;95566.50;;;3.04;82.23
84683;BME280;74905;44.124;18.116;2023-12-22T00:10:05;95561.91;;;2.94;82.92
84683;BME280;74905;44.124;18.116;2023-12-22T00:12:31;95560.88;;;2.88;82.75
84683;BME280;74905;44.124;18.116;2023-12-22T00:14:57;95555.50;;;2.90;83.52
84683;BME280;74905;44.124;18.116;2023-12-22T00:17:22;95546.34;;;2.99;83.19
84683;BME280;74905;44.124;18.116;2023-12-22T00:19:48;95556.94;;;3.05;82.64
84683;BME280;74905;44.124;18.116;2023-12-22T00:22:13;95557.84;;;2.95;82.86
84683;BME280;74905;44.124;18.116;2023-12-22T00:24:39;95556.94;;;2.91;83.41
84683;BME280;74905;44.124;18.116;2023-12-22T00:27:05;95559.09;;;2.92;83.77
84683;BME280;74905;44.124;18.116;2023-12-22T00:29:31;95553.06;;;2.96;83.74
84683;BME280;74905;44.124;18.116;2023-12-22T00:32:01;95544.13;;;3.09;83.29
84683;BME280;74905;44.124;18.116;2023-12-22T00:34:27;95544.31;;;3.13;82.59
84683;BME280;74905;44.124;18.116;2023-12-22T00:36:52;95556.63;;;3.12;83.23
84683;BME280;74905;44.124;18.116;2023-12-22T00:39:18;95556.75;;;3.14;83.07
84683;BME280;74905;44.124;18.116;2023-12-22T00:41:43;95574.47;;;3.11;82.85
84683;BME280;74905;44.124;18.116;2023-12-22T00:44:09;95576.78;;;3.03;83.33
84683;BME280;74905;44.124;18.116;2023-12-22T00:46:34;95580.25;;;3.04;83.18
84683;BME280;74905;44.124;18.116;2023-12-22T00:49:00;95552.25;;;3.07;83.87
84683;BME280;74905;44.124;18.116;2023-12-22T00:51:26;95533.53;;;3.17;83.83
84683;BME280;74905;44.124;18.116;2023-12-22T00:53:51;95514.09;;;3.27;83.87
84683;BME280;74905;44.124;18.116;2023-12-22T00:56:17;95522.63;;;3.33;84.50
84683;BME280;74905;44.124;18.116;2023-12-22T00:58:42;95536.69;;;3.39;83.45
84683;BME280;74905;44.124;18.116;2023-12-22T01:01:08;95523.66;;;3.26;83.65
84683;BME280;74905;44.124;18.116;2023-12-22T01:03:34;95538.63;;;3.23;83.67
84683;BME280;74905;44.124;18.116;2023-12-22T01:05:59;95539.44;;;3.12;84.03
84683;BME280;74905;44.124;18.116;2023-12-22T01:08:25;95532.81;;;3.17;84.00
84683;BME280;74905;44.124;18.116;2023-12-22T01:10:50;95523.56;;;3.24;84.00
84683;BME280;74905;44.124;18.116;2023-12-22T01:13:16;95530.06;;;3.30;84.01
84683;BME280;74905;44.124;18.116;2023-12-22T01:15:41;95509.81;;;3.38;83.50
84683;BME280;74905;44.124;18.116;2023-12-22T01:18:10;95507.78;;;3.38;83.48
84683;BME280;74905;44.124;18.116;2023-12-22T01:20:35;95497.50;;;3.39;83.73
84683;BME280;74905;44.124;18.116;2023-12-22T01:23:01;95489.31;;;3.41;83.81
84683;BME280;74905;44.124;18.116;2023-12-22T01:25:27;95502.88;;;3.36;84.06
84683;BME280;74905;44.124;18.116;2023-12-22T01:27:52;95501.88;;;3.30;84.53
84683;BME280;74905;44.124;18.116;2023-12-22T01:32:46;95486.19;;;3.32;84.50
84683;BME280;74905;44.124;18.116;2023-12-22T01:35:12;95494.03;;;3.38;84.49
84683;BME280;74905;44.124;18.116;2023-12-22T01:37:38;95509.91;;;3.40;84.44
84683;BME280;74905;44.124;18.116;2023-12-22T01:40:04;95515.50;;;3.42;84.68
84683;BME280;74905;44.124;18.116;2023-12-22T01:42:30;95510.31;;;3.48;84.06
84683;BME280;74905;44.124;18.116;2023-12-22T01:44:55;95507.44;;;3.46;84.75
84683;BME280;74905;44.124;18.116;2023-12-22T01:47:21;95514.38;;;3.47;84.66
84683;BME280;74905;44.124;18.116;2023-12-22T01:49:47;95497.16;;;3.46;85.11
84683;BME280;74905;44.124;18.116;2023-12-22T01:52:14;95496.75;;;3.52;84.93
84683;BME280;74905;44.124;18.116;2023-12-22T01:54:39;95508.56;;;3.54;84.94
84683;BME280;74905;44.124;18.116;2023-12-22T01:57:05;95483.38;;;3.60;84.45
84683;BME280;74905;44.124;18.116;2023-12-22T01:59:32;95474.72;;;3.65;84.10
84683;BME280;74905;44.124;18.116;2023-12-22T02:02:03;95476.53;;;3.61;83.83
84683;BME280;74905;44.124;18.116;2023-12-22T02:04:30;95476.44;;;3.59;83.76
84683;BME280;74905;44.124;18.116;2023-12-22T02:07:01;95481.16;;;3.56;84.03
84683;BME280;74905;44.124;18.116;2023-12-22T02:09:27;95477.97;;;3.62;84.35
84683;BME280;74905;44.124;18.116;2023-12-22T02:11:52;95476.16;;;3.66;83.91
84683;BME280;74905;44.124;18.116;2023-12-22T02:14:18;95463.81;;;3.67;84.06
84683;BME280;74905;44.124;18.116;2023-12-22T02:16:52;95463.38;;;3.73;84.48
84683;BME280;74905;44.124;18.116;2023-12-22T02:22:06;95464.28;;;3.78;83.60
84683;BME280;74905;44.124;18.116;2023-12-22T02:24:32;95471.72;;;3.75;83.42
84683;BME280;74905;44.124;18.116;2023-12-22T02:27:04;95458.34;;;3.54;83.90
84683;BME280;74905;44.124;18.116;2023-12-22T02:29:43;95458.56;;;3.44;84.29
84683;BME280;74905;44.124;18.116;2023-12-22T02:32:17;95452.63;;;3.50;84.67
84683;BME280;74905;44.124;18.116;2023-12-22T02:34:49;95456.09;;;3.50;84.34
84683;BME280;74905;44.124;18.116;2023-12-22T02:37:17;95461.00;;;3.52;83.90
84683;BME280;74905;44.124;18.116;2023-12-22T02:39:44;95458.66;;;3.46;83.98
84683;BME280;74905;44.124;18.116;2023-12-22T02:42:10;95463.63;;;3.50;84.31
84683;BME280;74905;44.124;18.116;2023-12-22T02:44:35;95472.09;;;3.40;84.29
84683;BME280;74905;44.124;18.116;2023-12-22T02:47:01;95466.09;;;3.44;84.72
84683;BME280;74905;44.124;18.116;2023-12-22T02:49:27;95463.63;;;3.50;84.40
84683;BME280;74905;44.124;18.116;2023-12-22T02:51:53;95471.72;;;3.46;84.32
84683;BME280;74905;44.124;18.116;2023-12-22T02:54:18;95454.50;;;3.45;84.66
84683;BME280;74905;44.124;18.116;2023-12-22T02:56:48;95445.75;;;3.49;85.00
84683;BME280;74905;44.124;18.116;2023-12-22T02:59:14;95464.81;;;3.74;84.77
84683;BME280;74905;44.124;18.116;2023-12-22T03:01:40;95467.91;;;3.53;83.83
84683;BME280;74905;44.124;18.116;2023-12-22T03:04:05;95454.06;;;3.51;84.81
84683;BME280;74905;44.124;18.116;2023-12-22T03:06:31;95451.53;;;3.55;85.02
84683;BME280;74905;44.124;18.116;2023-12-22T03:08:56;95457.28;;;3.61;85.22
84683;BME280;74905;44.124;18.116;2023-12-22T03:11:22;95475.53;;;3.68;84.74
84683;BME280;74905;44.124;18.116;2023-12-22T03:13:47;95467.78;;;3.64;84.54
84683;BME280;74905;44.124;18.116;2023-12-22T03:16:13;95466.03;;;3.71;85.46
84683;BME280;74905;44.124;18.116;2023-12-22T03:18:39;95464.56;;;3.84;85.49
84683;BME280;74905;44.124;18.116;2023-12-22T03:21:05;95466.25;;;3.91;85.26
84683;BME280;74905;44.124;18.116;2023-12-22T03:23:30;95469.84;;;3.93;84.52
84683;BME280;74905;44.124;18.116;2023-12-22T03:25:56;95454.53;;;3.90;83.99
84683;BME280;74905;44.124;18.116;2023-12-22T03:28:21;95436.81;;;3.93;84.13
84683;BME280;74905;44.124;18.116;2023-12-22T03:30:47;95457.50;;;3.94;83.78
84683;BME280;74905;44.124;18.116;2023-12-22T03:33:13;95443.50;;;3.74;84.36
84683;BME280;74905;44.124;18.116;2023-12-22T03:35:38;95441.00;;;3.65;84.56
84683;BME280;74905;44.124;18.116;2023-12-22T03:38:04;95456.44;;;3.72;85.27
84683;BME280;74905;44.124;18.116;2023-12-22T03:40:29;95458.72;;;3.62;84.57
84683;BME280;74905;44.124;18.116;2023-12-22T03:42:55;95460.47;;;3.55;85.33
84683;BME280;74905;44.124;18.116;2023-12-22T03:45:21;95467.91;;;3.53;85.11
84683;BME280;74905;44.124;18.116;2023-12-22T03:47:47;95464.34;;;3.50;85.52
84683;BME280;74905;44.124;18.116;2023-12-22T03:50:12;95454.00;;;3.49;85.32
84683;BME280;74905;44.124;18.116;2023-12-22T03:52:38;95447.34;;;3.54;85.11
84683;BME280;74905;44.124;18.116;2023-12-22T03:55:04;95444.50;;;3.52;85.04
84683;BME280;74905;44.124;18.116;2023-12-22T03:57:30;95445.19;;;3.52;85.49
84683;BME280;74905;44.124;18.116;2023-12-22T03:59:55;95438.81;;;3.48;84.50
84683;BME280;74905;44.124;18.116;2023-12-22T04:02:21;95448.50;;;3.35;85.10
84683;BME280;74905;44.124;18.116;2023-12-22T04:04:47;95450.44;;;3.32;85.10
84683;BME280;74905;44.124;18.116;2023-12-22T04:07:13;95447.84;;;3.21;85.56
84683;BME280;74905;44.124;18.116;2023-12-22T04:09:38;95439.88;;;3.13;85.28
84683;BME280;74905;44.124;18.116;2023-12-22T04:12:04;95457.81;;;3.14;85.20
84683;BME280;74905;44.124;18.116;2023-12-22T04:14:30;95474.41;;;3.16;85.21
84683;BME280;74905;44.124;18.116;2023-12-22T04:16:56;95475.09;;;3.17;85.96
84683;BME280;74905;44.124;18.116;2023-12-22T04:19:22;95474.59;;;3.20;85.90
84683;BME280;74905;44.124;18.116;2023-12-22T04:21:48;95467.53;;;3.31;85.89
84683;BME280;74905;44.124;18.116;2023-12-22T04:24:13;95482.81;;;3.34;85.10
84683;BME280;74905;44.124;18.116;2023-12-22T04:26:39;95471.00;;;3.31;85.67
84683;BME280;74905;44.124;18.116;2023-12-22T04:29:05;95471.00;;;3.45;85.83
84683;BME280;74905;44.124;18.116;2023-12-22T04:31:31;95483.19;;;3.56;85.76
84683;BME280;74905;44.124;18.116;2023-12-22T04:33:56;95478.59;;;3.60;85.28
84683;BME280;74905;44.124;18.116;2023-12-22T04:36:22;95480.81;;;3.64;85.32
84683;BME280;74905;44.124;18.116;2023-12-22T04:38:47;95480.25;;;3.52;84.97
84683;BME280;74905;44.124;18.116;2023-12-22T04:41:13;95492.56;;;3.51;85.05
84683;BME280;74905;44.124;18.116;2023-12-22T04:43:39;95478.91;;;3.53;85.26
84683;BME280;74905;44.124;18.116;2023-12-22T04:46:04;95468.84;;;3.57;85.49
84683;BME280;74905;44.124;18.116;2023-12-22T04:48:30;95470.09;;;3.70;84.80
84683;BME280;74905;44.124;18.116;2023-12-22T04:50:56;95473.16;;;3.76;85.18
84683;BME280;74905;44.124;18.116;2023-12-22T04:53:22;95481.72;;;3.68;85.24
84683;BME280;74905;44.124;18.116;2023-12-22T04:55:47;95477.03;;;3.71;85.19
84683;BME280;74905;44.124;18.116;2023-12-22T04:58:13;95480.97;;;3.82;85.82
84683;BME280;74905;44.124;18.116;2023-12-22T05:00:38;95483.13;;;3.83;84.38
84683;BME280;74905;44.124;18.116;2023-12-22T05:03:04;95470.88;;;3.86;84.61
84683;BME280;74905;44.124;18.116;2023-12-22T05:05:29;95468.41;;;3.92;84.80
84683;BME280;74905;44.124;18.116;2023-12-22T05:07:55;95481.47;;;4.07;83.96
84683;BME280;74905;44.124;18.116;2023-12-22T05:10:21;95488.47;;;3.95;83.34
84683;BME280;74905;44.124;18.116;2023-12-22T05:12:46;95495.94;;;3.92;83.69
84683;BME280;74905;44.124;18.116;2023-12-22T05:15:12;95495.59;;;4.00;84.34
84683;BME280;74905;44.124;18.116;2023-12-22T05:17:37;95503.59;;;4.09;84.30
84683;BME280;74905;44.124;18.116;2023-12-22T05:20:03;95506.44;;;4.11;83.54
84683;BME280;74905;44.124;18.116;2023-12-22T05:22:29;95499.78;;;4.17;83.72
84683;BME280;74905;44.124;18.116;2023-12-22T05:24:57;95487.44;;;4.18;83.37
84683;BME280;74905;44.124;18.116;2023-12-22T05:27:22;95491.53;;;4.17;83.72
84683;BME280;74905;44.124;18.116;2023-12-22T05:29:48;95499.31;;;4.06;83.53
84683;BME280;74905;44.124;18.116;2023-12-22T05:32:13;95494.69;;;3.95;84.15
84683;BME280;74905;44.124;18.116;2023-12-22T05:34:39;95500.00;;;3.91;84.44
84683;BME280;74905;44.124;18.116;2023-12-22T05:37:05;95493.78;;;3.91;84.92
84683;BME280;74905;44.124;18.116;2023-12-22T05:39:30;95493.78;;;3.91;84.54
84683;BME280;74905;44.124;18.116;2023-12-22T05:41:57;95509.06;;;3.94;85.39
84683;BME280;74905;44.124;18.116;2023-12-22T05:44:23;95508.84;;;4.03;84.47
84683;BME280;74905;44.124;18.116;2023-12-22T05:46:49;95510.34;;;4.06;84.50
84683;BME280;74905;44.124;18.116;2023-12-22T05:49:15;95518.69;;;4.08;84.62
84683;BME280;74905;44.124;18.116;2023-12-22T05:51:41;95518.22;;;3.98;84.20
84683;BME280;74905;44.124;18.116;2023-12-22T05:54:08;95507.81;;;3.97;84.30
84683;BME280;74905;44.124;18.116;2023-12-22T05:56:34;95516.47;;;4.05;84.35
84683;BME280;74905;44.124;18.116;2023-12-22T05:59:00;95516.19;;;3.99;84.51
84683;BME280;74905;44.124;18.116;2023-12-22T06:01:25;95503.75;;;3.98;84.74
84683;BME280;74905;44.124;18.116;2023-12-22T06:03:52;95504.81;;;4.06;84.96
84683;BME280;74905;44.124;18.116;2023-12-22T06:06:19;95514.72;;;4.11;85.10
84683;BME280;74905;44.124;18.116;2023-12-22T06:08:44;95525.53;;;4.07;85.27
84683;BME280;74905;44.124;18.116;2023-12-22T06:11:10;95538.56;;;4.07;85.08
84683;BME280;74905;44.124;18.116;2023-12-22T06:13:36;95533.97;;;4.11;85.03
84683;BME280;74905;44.124;18.116;2023-12-22T06:16:01;95549.78;;;4.11;84.94
84683;BME280;74905;44.124;18.116;2023-12-22T06:18:27;95555.81;;;4.07;85.46
84683;BME280;74905;44.124;18.116;2023-12-22T06:20:53;95555.06;;;4.21;85.84
84683;BME280;74905;44.124;18.116;2023-12-22T06:23:19;95561.66;;;4.29;85.32
84683;BME280;74905;44.124;18.116;2023-12-22T06:25:45;95569.19;;;4.29;85.24
84683;BME280;74905;44.124;18.116;2023-12-22T06:28:12;95573.47;;;4.32;84.43
84683;BME280;74905;44.124;18.116;2023-12-22T06:30:38;95573.66;;;4.36;84.95
84683;BME280;74905;44.124;18.116;2023-12-22T06:33:04;95576.69;;;4.42;84.34
84683;BME280;74905;44.124;18.116;2023-12-22T06:35:29;95560.69;;;4.38;84.37
84683;BME280;74905;44.124;18.116;2023-12-22T06:38:02;95540.09;;;4.39;84.66
84683;BME280;74905;44.124;18.116;2023-12-22T06:40:30;95553.41;;;4.45;84.58
84683;BME280;74905;44.124;18.116;2023-12-22T06:42:56;95569.88;;;4.43;84.40
84683;BME280;74905;44.124;18.116;2023-12-22T06:45:22;95567.00;;;4.41;84.24
84683;BME280;74905;44.124;18.116;2023-12-22T06:47:47;95583.34;;;4.37;84.07
84683;BME280;74905;44.124;18.116;2023-12-22T06:50:13;95578.25;;;4.31;83.92
84683;BME280;74905;44.124;18.116;2023-12-22T06:52:38;95597.34;;;4.27;84.98
84683;BME280;74905;44.124;18.116;2023-12-22T06:55:05;95606.22;;;4.26;84.71
84683;BME280;74905;44.124;18.116;2023-12-22T06:57:31;95613.25;;;4.29;84.58
84683;BME280;74905;44.124;18.116;2023-12-22T06:59:56;95617.72;;;4.36;84.81
84683;BME280;74905;44.124;18.116;2023-12-22T07:02:22;95628.91;;;4.40;85.22
84683;BME280;74905;44.124;18.116;2023-12-22T07:07:37;95633.00;;;4.68;84.71
84683;BME280;74905;44.124;18.116;2023-12-22T07:10:03;95624.59;;;4.80;84.33
84683;BME280;74905;44.124;18.116;2023-12-22T07:12:28;95635.78;;;4.84;84.56
84683;BME280;74905;44.124;18.116;2023-12-22T07:14:54;95650.56;;;4.91;83.78
84683;BME280;74905;44.124;18.116;2023-12-22T07:17:20;95647.41;;;4.82;83.66
84683;BME280;74905;44.124;18.116;2023-12-22T07:19:46;95651.50;;;4.81;84.07
84683;BME280;74905;44.124;18.116;2023-12-22T07:22:12;95650.16;;;4.82;84.25
84683;BME280;74905;44.124;18.116;2023-12-22T07:24:38;95655.63;;;4.80;84.31
84683;BME280;74905;44.124;18.116;2023-12-22T07:27:04;95658.44;;;4.82;83.45
84683;BME280;74905;44.124;18.116;2023-12-22T07:29:30;95649.31;;;4.94;84.07
84683;BME280;74905;44.124;18.116;2023-12-22T07:31:56;95647.47;;;4.98;83.49
84683;BME280;74905;44.124;18.116;2023-12-22T07:34:22;95645.41;;;4.99;84.45
84683;BME280;74905;44.124;18.116;2023-12-22T07:36:47;95653.03;;;5.00;83.54
84683;BME280;74905;44.124;18.116;2023-12-22T07:39:13;95666.03;;;4.98;83.97
84683;BME280;74905;44.124;18.116;2023-12-22T07:41:40;95669.06;;;5.04;84.09
84683;BME280;74905;44.124;18.116;2023-12-22T07:44:05;95680.72;;;5.02;83.77
84683;BME280;74905;44.124;18.116;2023-12-22T07:46:31;95685.03;;;4.92;83.58
84683;BME280;74905;44.124;18.116;2023-12-22T07:48:57;95687.19;;;4.93;84.44
84683;BME280;74905;44.124;18.116;2023-12-22T07:51:22;95694.13;;;4.94;84.37
84683;BME280;74905;44.124;18.116;2023-12-22T07:53:48;95683.09;;;4.94;85.01
84683;BME280;74905;44.124;18.116;2023-12-22T07:56:14;95690.41;;;5.03;85.05
84683;BME280;74905;44.124;18.116;2023-12-22T07:58:40;95696.28;;;5.11;84.64
84683;BME280;74905;44.124;18.116;2023-12-22T08:01:05;95680.66;;;5.16;84.63
84683;BME280;74905;44.124;18.116;2023-12-22T08:03:32;95696.50;;;5.15;84.07
84683;BME280;74905;44.124;18.116;2023-12-22T08:05:58;95701.47;;;5.19;84.34
84683;BME280;74905;44.124;18.116;2023-12-22T08:08:24;95701.66;;;5.23;84.36
84683;BME280;74905;44.124;18.116;2023-12-22T08:10:49;95693.66;;;5.29;84.18
84683;BME280;74905;44.124;18.116;2023-12-22T08:13:15;95700.69;;;5.32;84.58
84683;BME280;74905;44.124;18.116;2023-12-22T08:15:43;95718.66;;;5.33;84.33
84683;BME280;74905;44.124;18.116;2023-12-22T08:18:09;95715.19;;;5.33;84.78
84683;BME280;74905;44.124;18.116;2023-12-22T08:20:35;95688.22;;;5.31;84.48
84683;BME280;74905;44.124;18.116;2023-12-22T08:23:00;95706.28;;;5.34;85.21
84683;BME280;74905;44.124;18.116;2023-12-22T08:25:26;95717.06;;;5.28;85.40
84683;BME280;74905;44.124;18.116;2023-12-22T08:27:52;95701.84;;;5.27;85.21
84683;BME280;74905;44.124;18.116;2023-12-22T08:30:18;95727.09;;;5.21;85.45
84683;BME280;74905;44.124;18.116;2023-12-22T08:32:43;95736.78;;;5.22;86.19
84683;BME280;74905;44.124;18.116;2023-12-22T08:35:09;95740.34;;;5.25;85.75
84683;BME280;74905;44.124;18.116;2023-12-22T08:37:35;95739.75;;;5.27;85.82
84683;BME280;74905;44.124;18.116;2023-12-22T08:40:01;95765.53;;;5.33;86.13
84683;BME280;74905;44.124;18.116;2023-12-22T08:42:27;95782.28;;;5.37;85.47
84683;BME280;74905;44.124;18.116;2023-12-22T08:44:55;95804.34;;;5.37;85.81
84683;BME280;74905;44.124;18.116;2023-12-22T08:47:20;95812.00;;;5.39;85.74
84683;BME280;74905;44.124;18.116;2023-12-22T08:49:46;95812.28;;;5.45;86.25
84683;BME280;74905;44.124;18.116;2023-12-22T08:52:11;95812.06;;;5.54;86.06
84683;BME280;74905;44.124;18.116;2023-12-22T08:54:39;95814.47;;;5.78;85.42
84683;BME280;74905;44.124;18.116;2023-12-22T08:57:04;95784.69;;;5.90;85.69
84683;BME280;74905;44.124;18.116;2023-12-22T08:59:30;95778.19;;;5.99;83.73
84683;BME280;74905;44.124;18.116;2023-12-22T09:01:55;95781.28;;;6.07;82.61
84683;BME280;74905;44.124;18.116;2023-12-22T09:04:21;95773.09;;;6.09;83.17
84683;BME280;74905;44.124;18.116;2023-12-22T09:06:49;95780.41;;;6.18;84.74
84683;BME280;74905;44.124;18.116;2023-12-22T09:09:14;95781.25;;;6.23;84.60
84683;BME280;74905;44.124;18.116;2023-12-22T09:11:40;95794.38;;;6.22;85.40
84683;BME280;74905;44.124;18.116;2023-12-22T09:14:07;95810.06;;;6.18;85.36
84683;BME280;74905;44.124;18.116;2023-12-22T09:16:36;95792.16;;;6.19;85.70
84683;BME280;74905;44.124;18.116;2023-12-22T09:19:02;95787.59;;;6.25;85.92
84683;BME280;74905;44.124;18.116;2023-12-22T09:21:28;95805.50;;;6.24;85.49
84683;BME280;74905;44.124;18.116;2023-12-22T09:23:53;95808.19;;;6.22;85.92
84683;BME280;74905;44.124;18.116;2023-12-22T09:26:20;95800.59;;;6.23;86.07
84683;BME280;74905;44.124;18.116;2023-12-22T09:28:46;95806.22;;;6.25;85.51
84683;BME280;74905;44.124;18.116;2023-12-22T09:31:12;95808.53;;;6.30;85.56
84683;BME280;74905;44.124;18.116;2023-12-22T09:33:38;95805.94;;;6.34;84.96
84683;BME280;74905;44.124;18.116;2023-12-22T09:36:05;95808.88;;;6.39;84.54
84683;BME280;74905;44.124;18.116;2023-12-22T09:38:31;95809.41;;;6.51;83.89
84683;BME280;74905;44.124;18.116;2023-12-22T09:40:57;95802.09;;;6.57;83.49
84683;BME280;74905;44.124;18.116;2023-12-22T09:43:23;95785.63;;;6.77;83.27
84683;BME280;74905;44.124;18.116;2023-12-22T09:45:50;95792.03;;;6.99;81.53
84683;BME280;74905;44.124;18.116;2023-12-22T09:48:21;95793.16;;;7.10;79.83
84683;BME280;74905;44.124;18.116;2023-12-22T09:50:53;95806.22;;;7.07;79.61
84683;BME280;74905;44.124;18.116;2023-12-22T09:53:22;95820.19;;;7.12;80.00
84683;BME280;74905;44.124;18.116;2023-12-22T09:55:49;95817.91;;;7.24;79.70
84683;BME280;74905;44.124;18.116;2023-12-22T09:58:16;95810.88;;;7.21;79.75
84683;BME280;74905;44.124;18.116;2023-12-22T10:00:43;95820.09;;;7.09;79.88
84683;BME280;74905;44.124;18.116;2023-12-22T10:03:11;95819.69;;;6.99;79.99
84683;BME280;74905;44.124;18.116;2023-12-22T10:05:38;95811.34;;;7.15;79.92
84683;BME280;74905;44.124;18.116;2023-12-22T10:08:05;95799.66;;;7.34;78.77
84683;BME280;74905;44.124;18.116;2023-12-22T10:10:32;95787.06;;;7.49;77.73
84683;BME280;74905;44.124;18.116;2023-12-22T10:12:59;95797.28;;;7.62;79.10
84683;BME280;74905;44.124;18.116;2023-12-22T10:15:25;95815.84;;;7.60;77.57
84683;BME280;74905;44.124;18.116;2023-12-22T10:17:52;95819.88;;;7.57;76.65
84683;BME280;74905;44.124;18.116;2023-12-22T10:20:19;95817.44;;;7.47;76.30
84683;BME280;74905;44.124;18.116;2023-12-22T10:22:45;95809.13;;;7.29;78.81
84683;BME280;74905;44.124;18.116;2023-12-22T10:25:14;95809.13;;;7.29;79.61
84683;BME280;74905;44.124;18.116;2023-12-22T10:27:42;95792.78;;;7.53;78.18
84683;BME280;74905;44.124;18.116;2023-12-22T10:30:09;95765.69;;;7.69;77.66
84683;BME280;74905;44.124;18.116;2023-12-22T10:32:40;95771.44;;;7.75;76.48
84683;BME280;74905;44.124;18.116;2023-12-22T10:37:40;95788.31;;;7.81;78.44
84683;BME280;74905;44.124;18.116;2023-12-22T10:40:08;95792.13;;;7.72;77.68
84683;BME280;74905;44.124;18.116;2023-12-22T10:42:35;95797.97;;;7.63;77.68
84683;BME280;74905;44.124;18.116;2023-12-22T10:45:01;95784.59;;;7.57;77.96
84683;BME280;74905;44.124;18.116;2023-12-22T10:47:28;95803.84;;;7.53;78.16
84683;BME280;74905;44.124;18.116;2023-12-22T10:49:54;95814.59;;;7.45;78.22
84683;BME280;74905;44.124;18.116;2023-12-22T10:52:20;95805.91;;;7.35;78.97
84683;BME280;74905;44.124;18.116;2023-12-22T10:54:48;95798.47;;;7.22;79.81
84683;BME280;74905;44.124;18.116;2023-12-22T10:57:17;95802.44;;;7.17;80.86
84683;BME280;74905;44.124;18.116;2023-12-22T10:59:47;95797.66;;;7.19;81.07
84683;BME280;74905;44.124;18.116;2023-12-22T11:02:17;95790.16;;;7.22;81.70
84683;BME280;74905;44.124;18.116;2023-12-22T11:05:04;95785.56;;;7.28;80.11
84683;BME280;74905;44.124;18.116;2023-12-22T11:10:06;95785.66;;;7.30;79.73
84683;BME280;74905;44.124;18.116;2023-12-22T11:12:36;95795.78;;;7.24;80.31
84683;BME280;74905;44.124;18.116;2023-12-22T11:15:03;95804.00;;;7.22;80.74
84683;BME280;74905;44.124;18.116;2023-12-22T11:17:36;95803.81;;;7.18;80.95
84683;BME280;74905;44.124;18.116;2023-12-22T11:20:06;95820.28;;;7.14;81.49
84683;BME280;74905;44.124;18.116;2023-12-22T11:22:32;95800.69;;;7.07;81.68
84683;BME280;74905;44.124;18.116;2023-12-22T11:25:00;95810.56;;;7.13;81.66
84683;BME280;74905;44.124;18.116;2023-12-22T11:27:28;95801.22;;;7.22;81.54
84683;BME280;74905;44.124;18.116;2023-12-22T11:29:55;95783.53;;;7.29;81.55
84683;BME280;74905;44.124;18.116;2023-12-22T11:32:20;95783.84;;;7.37;81.47
84683;BME280;74905;44.124;18.116;2023-12-22T11:34:47;95787.56;;;7.26;81.89
84683;BME280;74905;44.124;18.116;2023-12-22T11:37:14;95789.22;;;7.33;81.11
84683;BME280;74905;44.124;18.116;2023-12-22T11:39:41;95793.56;;;7.38;81.31
84683;BME280;74905;44.124;18.116;2023-12-22T11:42:14;95791.19;;;7.48;81.58
84683;BME280;74905;44.124;18.116;2023-12-22T11:44:41;95801.00;;;7.51;80.87
84683;BME280;74905;44.124;18.116;2023-12-22T11:47:08;95804.47;;;7.52;79.94
84683;BME280;74905;44.124;18.116;2023-12-22T11:49:38;95808.41;;;7.29;80.28
84683;BME280;74905;44.124;18.116;2023-12-22T11:54:44;95795.78;;;7.24;79.64
84683;BME280;74905;44.124;18.116;2023-12-22T11:57:33;95806.75;;;7.39;80.65
84683;BME280;74905;44.124;18.116;2023-12-22T12:02:41;95801.22;;;7.57;79.73
84683;BME280;74905;44.124;18.116;2023-12-22T12:05:08;95801.00;;;7.51;78.86
84683;BME280;74905;44.124;18.116;2023-12-22T12:07:46;95786.28;;;7.46;79.64
84683;BME280;74905;44.124;18.116;2023-12-22T12:13:07;95789.63;;;7.43;80.37
84683;BME280;74905;44.124;18.116;2023-12-22T12:15:33;95773.94;;;7.50;79.13
84683;BME280;74905;44.124;18.116;2023-12-22T12:18:00;95765.16;;;7.55;79.69
84683;BME280;74905;44.124;18.116;2023-12-22T12:20:27;95758.09;;;7.70;79.94
84683;BME280;74905;44.124;18.116;2023-12-22T12:22:53;95748.75;;;7.79;79.21
84683;BME280;74905;44.124;18.116;2023-12-22T12:25:22;95741.84;;;7.80;79.17
84683;BME280;74905;44.124;18.116;2023-12-22T12:28:00;95746.25;;;7.87;77.69
84683;BME280;74905;44.124;18.116;2023-12-22T12:30:26;95748.75;;;7.99;77.42
84683;BME280;74905;44.124;18.116;2023-12-22T12:32:52;95744.50;;;7.96;74.26
84683;BME280;74905;44.124;18.116;2023-12-22T12:35:18;95733.50;;;7.98;74.09
84683;BME280;74905;44.124;18.116;2023-12-22T12:37:45;95741.44;;;8.07;72.90
84683;BME280;74905;44.124;18.116;2023-12-22T12:42:45;95759.78;;;8.36;73.36
84683;BME280;74905;44.124;18.116;2023-12-22T12:45:11;95773.44;;;8.30;73.20
84683;BME280;74905;44.124;18.116;2023-12-22T12:47:37;95776.28;;;8.32;74.17
84683;BME280;74905;44.124;18.116;2023-12-22T12:50:02;95775.47;;;8.49;73.29
84683;BME280;74905;44.124;18.116;2023-12-22T12:52:29;95772.97;;;8.77;72.13
84683;BME280;74905;44.124;18.116;2023-12-22T12:54:55;95766.16;;;9.02;70.74
84683;BME280;74905;44.124;18.116;2023-12-22T12:57:21;95772.53;;;8.85;71.50
84683;BME280;74905;44.124;18.116;2023-12-22T12:59:48;95775.41;;;8.67;71.28
84683;BME280;74905;44.124;18.116;2023-12-22T13:02:18;95767.13;;;8.47;70.51
84683;BME280;74905;44.124;18.116;2023-12-22T13:04:44;95760.22;;;8.29;71.40
84683;BME280;74905;44.124;18.116;2023-12-22T13:07:11;95747.69;;;8.28;69.72
84683;BME280;74905;44.124;18.116;2023-12-22T13:09:38;95734.94;;;8.38;70.65
84683;BME280;74905;44.124;18.116;2023-12-22T13:12:06;95739.34;;;8.89;68.45
84683;BME280;74905;44.124;18.116;2023-12-22T13:14:32;95742.09;;;10.04;65.14
84683;BME280;74905;44.124;18.116;2023-12-22T13:16:58;95731.41;;;11.62;59.56
84683;BME280;74905;44.124;18.116;2023-12-22T13:19:24;95732.25;;;13.16;56.52